sensor_id;sensor_type;location;lat;lon;timestamp;P1;durP1;ratioP1;P2;durP2;ratioP2
77423;SDS011;66494;47.172;14.678;2023-04-24T00:00:59;6.43;;;3.65;;
77423;SDS011;66494;47.172;14.678;2023-04-24T00:02:01;5.18;;;3.25;;
77423;SDS011;66494;47.172;14.678;2023-04-24T00:03:01;4.88;;;3.60;;
77423;SDS011;66494;47.172;14.678;2023-04-24T00:04:02;6.43;;;3.92;;
77423;SDS011;66494;47.172;14.678;2023-04-24T00:05:07;4.93;;;3.70;;
77423;SDS011;66494;47.172;14.678;2023-04-24T00:06:07;4.80;;;3.25;;
77423;SDS011;66494;47.172;14.678;2023-04-24T00:07:08;6.22;;;3.58;;
77423;SDS011;66494;47.172;14.678;2023-04-24T00:08:08;4.82;;;3.72;;
77423;SDS011;66494;47.172;14.678;2023-04-24T00:09:09;4.70;;;3.22;;
77423;SDS011;66494;47.172;14.678;2023-04-24T00:10:12;6.80;;;4.15;;
77423;SDS011;66494;47.172;14.678;2023-04-24T00:11:13;5.07;;;4.15;;
77423;SDS011;66494;47.172;14.678;2023-04-24T00:12:13;7.13;;;3.83;;
77423;SDS011;66494;47.172;14.678;2023-04-24T00:13:13;6.28;;;3.72;;
77423;SDS011;66494;47.172;14.678;2023-04-24T00:14:13;6.90;;;4.50;;
77423;SDS011;66494;47.172;14.678;2023-04-24T00:15:14;5.35;;;4.75;;
77423;SDS011;66494;47.172;14.678;2023-04-24T00:16:14;5.55;;;4.03;;
77423;SDS011;66494;47.172;14.678;2023-04-24T00:17:14;8.63;;;4.20;;
77423;SDS011;66494;47.172;14.678;2023-04-24T00:18:15;5.57;;;4.43;;
77423;SDS011;66494;47.172;14.678;2023-04-24T00:19:15;9.68;;;4.22;;
77423;SDS011;66494;47.172;14.678;2023-04-24T00:21:17;5.17;;;3.73;;
77423;SDS011;66494;47.172;14.678;2023-04-24T00:22:17;7.22;;;4.18;;
77423;SDS011;66494;47.172;14.678;2023-04-24T00:23:18;6.40;;;4.30;;
77423;SDS011;66494;47.172;14.678;2023-04-24T00:24:18;7.72;;;4.20;;
77423;SDS011;66494;47.172;14.678;2023-04-24T00:25:18;7.40;;;4.07;;
77423;SDS011;66494;47.172;14.678;2023-04-24T00:26:18;6.20;;;4.15;;
77423;SDS011;66494;47.172;14.678;2023-04-24T00:27:19;5.32;;;3.72;;
77423;SDS011;66494;47.172;14.678;2023-04-24T00:28:19;4.15;;;3.30;;
77423;SDS011;66494;47.172;14.678;2023-04-24T00:29:19;6.47;;;3.80;;
77423;SDS011;66494;47.172;14.678;2023-04-24T00:30:20;4.85;;;3.38;;
77423;SDS011;66494;47.172;14.678;2023-04-24T00:31:20;4.65;;;3.58;;
77423;SDS011;66494;47.172;14.678;2023-04-24T00:32:20;6.68;;;3.90;;
77423;SDS011;66494;47.172;14.678;2023-04-24T00:33:20;4.45;;;3.70;;
77423;SDS011;66494;47.172;14.678;2023-04-24T00:34:21;6.13;;;3.90;;
77423;SDS011;66494;47.172;14.678;2023-04-24T00:35:21;4.65;;;3.35;;
77423;SDS011;66494;47.172;14.678;2023-04-24T00:36:21;5.25;;;3.72;;
77423;SDS011;66494;47.172;14.678;2023-04-24T00:37:21;4.47;;;3.42;;
77423;SDS011;66494;47.172;14.678;2023-04-24T00:38:21;6.78;;;4.22;;
77423;SDS011;66494;47.172;14.678;2023-04-24T00:39:22;4.28;;;3.15;;
77423;SDS011;66494;47.172;14.678;2023-04-24T00:40:22;4.85;;;3.85;;
77423;SDS011;66494;47.172;14.678;2023-04-24T00:41:24;6.75;;;3.58;;
77423;SDS011;66494;47.172;14.678;2023-04-24T00:42:25;7.22;;;3.55;;
77423;SDS011;66494;47.172;14.678;2023-04-24T00:43:25;5.43;;;4.13;;
77423;SDS011;66494;47.172;14.678;2023-04-24T00:44:26;4.70;;;3.58;;
77423;SDS011;66494;47.172;14.678;2023-04-24T00:45:26;6.82;;;3.67;;
77423;SDS011;66494;47.172;14.678;2023-04-24T00:46:26;5.30;;;3.42;;
77423;SDS011;66494;47.172;14.678;2023-04-24T00:47:26;5.60;;;3.78;;
77423;SDS011;66494;47.172;14.678;2023-04-24T00:48:27;5.22;;;3.60;;
77423;SDS011;66494;47.172;14.678;2023-04-24T00:49:27;5.35;;;3.88;;
77423;SDS011;66494;47.172;14.678;2023-04-24T00:50:28;8.15;;;3.45;;
77423;SDS011;66494;47.172;14.678;2023-04-24T00:51:28;4.32;;;3.30;;
77423;SDS011;66494;47.172;14.678;2023-04-24T00:52:28;6.75;;;4.03;;
77423;SDS011;66494;47.172;14.678;2023-04-24T00:53:31;6.10;;;3.65;;
77423;SDS011;66494;47.172;14.678;2023-04-24T00:54:31;7.38;;;4.20;;
77423;SDS011;66494;47.172;14.678;2023-04-24T00:55:31;5.40;;;3.92;;
77423;SDS011;66494;47.172;14.678;2023-04-24T00:56:31;6.00;;;3.65;;
77423;SDS011;66494;47.172;14.678;2023-04-24T00:57:32;4.75;;;3.63;;
77423;SDS011;66494;47.172;14.678;2023-04-24T00:58:32;4.28;;;2.97;;
77423;SDS011;66494;47.172;14.678;2023-04-24T00:59:33;6.55;;;3.78;;
77423;SDS011;66494;47.172;14.678;2023-04-24T01:00:33;3.78;;;3.40;;
77423;SDS011;66494;47.172;14.678;2023-04-24T01:01:33;5.85;;;4.30;;
77423;SDS011;66494;47.172;14.678;2023-04-24T01:02:34;7.13;;;4.13;;
77423;SDS011;66494;47.172;14.678;2023-04-24T01:03:34;6.63;;;4.60;;
77423;SDS011;66494;47.172;14.678;2023-04-24T01:04:37;6.03;;;4.45;;
77423;SDS011;66494;47.172;14.678;2023-04-24T01:05:37;8.52;;;5.10;;
77423;SDS011;66494;47.172;14.678;2023-04-24T01:06:38;6.05;;;3.95;;
77423;SDS011;66494;47.172;14.678;2023-04-24T01:07:39;6.03;;;4.43;;
77423;SDS011;66494;47.172;14.678;2023-04-24T01:08:40;7.53;;;4.22;;
77423;SDS011;66494;47.172;14.678;2023-04-24T01:09:41;7.20;;;5.07;;
77423;SDS011;66494;47.172;14.678;2023-04-24T01:10:44;6.55;;;4.55;;
77423;SDS011;66494;47.172;14.678;2023-04-24T01:11:46;5.45;;;4.15;;
77423;SDS011;66494;47.172;14.678;2023-04-24T01:12:46;6.88;;;4.13;;
77423;SDS011;66494;47.172;14.678;2023-04-24T01:13:47;5.07;;;4.43;;
77423;SDS011;66494;47.172;14.678;2023-04-24T01:14:47;7.13;;;3.95;;
77423;SDS011;66494;47.172;14.678;2023-04-24T01:15:47;6.82;;;4.57;;
77423;SDS011;66494;47.172;14.678;2023-04-24T01:16:48;7.18;;;4.22;;
77423;SDS011;66494;47.172;14.678;2023-04-24T01:17:48;6.05;;;4.40;;
77423;SDS011;66494;47.172;14.678;2023-04-24T01:18:48;6.00;;;4.10;;
77423;SDS011;66494;47.172;14.678;2023-04-24T01:19:48;5.20;;;4.35;;
77423;SDS011;66494;47.172;14.678;2023-04-24T01:20:49;5.82;;;3.45;;
77423;SDS011;66494;47.172;14.678;2023-04-24T01:21:51;7.97;;;3.97;;
77423;SDS011;66494;47.172;14.678;2023-04-24T01:22:54;5.13;;;4.00;;
77423;SDS011;66494;47.172;14.678;2023-04-24T01:23:54;5.95;;;4.15;;
77423;SDS011;66494;47.172;14.678;2023-04-24T01:24:55;10.10;;;4.85;;
77423;SDS011;66494;47.172;14.678;2023-04-24T01:25:56;5.40;;;3.80;;
77423;SDS011;66494;47.172;14.678;2023-04-24T01:26:56;5.25;;;3.60;;
77423;SDS011;66494;47.172;14.678;2023-04-24T01:27:56;5.18;;;4.10;;
77423;SDS011;66494;47.172;14.678;2023-04-24T01:28:57;4.55;;;3.67;;
77423;SDS011;66494;47.172;14.678;2023-04-24T01:29:57;6.82;;;3.58;;
77423;SDS011;66494;47.172;14.678;2023-04-24T01:30:57;7.10;;;4.35;;
77423;SDS011;66494;47.172;14.678;2023-04-24T01:31:57;6.68;;;3.45;;
77423;SDS011;66494;47.172;14.678;2023-04-24T01:32:58;5.70;;;3.45;;
77423;SDS011;66494;47.172;14.678;2023-04-24T01:33:58;6.15;;;3.67;;
77423;SDS011;66494;47.172;14.678;2023-04-24T01:34:59;3.75;;;3.20;;
77423;SDS011;66494;47.172;14.678;2023-04-24T01:35:59;5.05;;;3.35;;
77423;SDS011;66494;47.172;14.678;2023-04-24T01:36:59;4.50;;;3.75;;
77423;SDS011;66494;47.172;14.678;2023-04-24T01:38:00;5.05;;;3.33;;
77423;SDS011;66494;47.172;14.678;2023-04-24T01:39:00;5.70;;;4.15;;
77423;SDS011;66494;47.172;14.678;2023-04-24T01:40:01;5.32;;;3.08;;
77423;SDS011;66494;47.172;14.678;2023-04-24T01:41:01;4.43;;;3.10;;
77423;SDS011;66494;47.172;14.678;2023-04-24T01:42:01;5.35;;;3.28;;
77423;SDS011;66494;47.172;14.678;2023-04-24T01:43:02;5.05;;;3.70;;
77423;SDS011;66494;47.172;14.678;2023-04-24T01:44:02;4.28;;;3.45;;
77423;SDS011;66494;47.172;14.678;2023-04-24T01:45:03;4.82;;;3.25;;
77423;SDS011;66494;47.172;14.678;2023-04-24T01:46:05;5.22;;;3.63;;
77423;SDS011;66494;47.172;14.678;2023-04-24T01:47:05;7.90;;;3.63;;
77423;SDS011;66494;47.172;14.678;2023-04-24T01:48:06;4.60;;;3.40;;
77423;SDS011;66494;47.172;14.678;2023-04-24T01:49:06;6.57;;;4.65;;
77423;SDS011;66494;47.172;14.678;2023-04-24T01:50:07;5.30;;;3.92;;
77423;SDS011;66494;47.172;14.678;2023-04-24T01:51:07;6.63;;;4.47;;
77423;SDS011;66494;47.172;14.678;2023-04-24T01:52:08;6.70;;;4.32;;
77423;SDS011;66494;47.172;14.678;2023-04-24T01:53:08;6.40;;;4.50;;
77423;SDS011;66494;47.172;14.678;2023-04-24T01:54:08;6.25;;;4.32;;
77423;SDS011;66494;47.172;14.678;2023-04-24T01:55:09;6.45;;;4.00;;
77423;SDS011;66494;47.172;14.678;2023-04-24T01:56:09;6.75;;;4.80;;
77423;SDS011;66494;47.172;14.678;2023-04-24T01:57:10;7.40;;;4.40;;
77423;SDS011;66494;47.172;14.678;2023-04-24T01:58:10;7.07;;;5.35;;
77423;SDS011;66494;47.172;14.678;2023-04-24T01:59:11;5.72;;;4.50;;
77423;SDS011;66494;47.172;14.678;2023-04-24T02:00:11;6.28;;;4.68;;
77423;SDS011;66494;47.172;14.678;2023-04-24T02:01:18;6.03;;;4.80;;
77423;SDS011;66494;47.172;14.678;2023-04-24T02:02:18;6.40;;;4.40;;
77423;SDS011;66494;47.172;14.678;2023-04-24T02:03:21;4.78;;;4.07;;
77423;SDS011;66494;47.172;14.678;2023-04-24T02:04:21;6.05;;;4.35;;
77423;SDS011;66494;47.172;14.678;2023-04-24T02:05:21;6.43;;;4.97;;
77423;SDS011;66494;47.172;14.678;2023-04-24T02:06:21;6.13;;;4.47;;
77423;SDS011;66494;47.172;14.678;2023-04-24T02:07:22;7.53;;;4.63;;
77423;SDS011;66494;47.172;14.678;2023-04-24T02:08:22;8.80;;;4.90;;
77423;SDS011;66494;47.172;14.678;2023-04-24T02:09:22;6.55;;;4.82;;
77423;SDS011;66494;47.172;14.678;2023-04-24T02:10:22;7.70;;;5.82;;
77423;SDS011;66494;47.172;14.678;2023-04-24T02:11:23;7.30;;;4.78;;
77423;SDS011;66494;47.172;14.678;2023-04-24T02:12:23;6.13;;;4.20;;
77423;SDS011;66494;47.172;14.678;2023-04-24T02:13:23;6.50;;;4.88;;
77423;SDS011;66494;47.172;14.678;2023-04-24T02:14:23;7.97;;;4.93;;
77423;SDS011;66494;47.172;14.678;2023-04-24T02:15:24;7.28;;;5.25;;
77423;SDS011;66494;47.172;14.678;2023-04-24T02:16:24;7.93;;;4.72;;
77423;SDS011;66494;47.172;14.678;2023-04-24T02:17:24;6.60;;;5.10;;
77423;SDS011;66494;47.172;14.678;2023-04-24T02:18:25;10.32;;;4.85;;
77423;SDS011;66494;47.172;14.678;2023-04-24T02:19:25;9.75;;;5.75;;
77423;SDS011;66494;47.172;14.678;2023-04-24T02:20:25;11.70;;;4.85;;
77423;SDS011;66494;47.172;14.678;2023-04-24T02:21:26;9.40;;;5.65;;
77423;SDS011;66494;47.172;14.678;2023-04-24T02:22:27;8.68;;;5.93;;
77423;SDS011;66494;47.172;14.678;2023-04-24T02:23:27;7.32;;;5.10;;
77423;SDS011;66494;47.172;14.678;2023-04-24T02:24:27;6.93;;;5.35;;
77423;SDS011;66494;47.172;14.678;2023-04-24T02:25:28;8.35;;;5.45;;
77423;SDS011;66494;47.172;14.678;2023-04-24T02:26:28;7.28;;;5.32;;
77423;SDS011;66494;47.172;14.678;2023-04-24T02:27:28;8.75;;;5.65;;
77423;SDS011;66494;47.172;14.678;2023-04-24T02:28:28;8.05;;;5.78;;
77423;SDS011;66494;47.172;14.678;2023-04-24T02:29:28;6.95;;;5.30;;
77423;SDS011;66494;47.172;14.678;2023-04-24T02:30:29;9.75;;;6.20;;
77423;SDS011;66494;47.172;14.678;2023-04-24T02:31:29;8.15;;;5.30;;
77423;SDS011;66494;47.172;14.678;2023-04-24T02:32:30;7.90;;;6.10;;
77423;SDS011;66494;47.172;14.678;2023-04-24T02:33:30;7.47;;;5.25;;
77423;SDS011;66494;47.172;14.678;2023-04-24T02:34:31;7.75;;;5.57;;
77423;SDS011;66494;47.172;14.678;2023-04-24T02:35:31;8.45;;;6.28;;
77423;SDS011;66494;47.172;14.678;2023-04-24T02:36:31;7.75;;;6.35;;
77423;SDS011;66494;47.172;14.678;2023-04-24T02:37:31;7.40;;;5.28;;
77423;SDS011;66494;47.172;14.678;2023-04-24T02:38:32;10.45;;;5.72;;
77423;SDS011;66494;47.172;14.678;2023-04-24T02:39:32;7.45;;;5.85;;
77423;SDS011;66494;47.172;14.678;2023-04-24T02:40:32;6.60;;;5.25;;
77423;SDS011;66494;47.172;14.678;2023-04-24T02:41:33;6.97;;;4.78;;
77423;SDS011;66494;47.172;14.678;2023-04-24T02:42:33;8.73;;;5.72;;
77423;SDS011;66494;47.172;14.678;2023-04-24T02:43:33;7.75;;;5.82;;
77423;SDS011;66494;47.172;14.678;2023-04-24T02:44:33;8.20;;;5.45;;
77423;SDS011;66494;47.172;14.678;2023-04-24T02:45:34;7.25;;;5.35;;
77423;SDS011;66494;47.172;14.678;2023-04-24T02:46:34;8.82;;;5.78;;
77423;SDS011;66494;47.172;14.678;2023-04-24T02:47:34;9.25;;;5.22;;
77423;SDS011;66494;47.172;14.678;2023-04-24T02:48:35;7.65;;;5.40;;
77423;SDS011;66494;47.172;14.678;2023-04-24T02:49:35;9.45;;;6.00;;
77423;SDS011;66494;47.172;14.678;2023-04-24T02:50:35;8.95;;;5.80;;
77423;SDS011;66494;47.172;14.678;2023-04-24T02:51:35;9.35;;;5.35;;
77423;SDS011;66494;47.172;14.678;2023-04-24T02:52:40;8.00;;;6.18;;
77423;SDS011;66494;47.172;14.678;2023-04-24T02:53:40;8.77;;;5.82;;
77423;SDS011;66494;47.172;14.678;2023-04-24T02:54:41;9.20;;;6.32;;
77423;SDS011;66494;47.172;14.678;2023-04-24T02:55:41;10.23;;;5.80;;
77423;SDS011;66494;47.172;14.678;2023-04-24T02:56:41;9.32;;;5.43;;
77423;SDS011;66494;47.172;14.678;2023-04-24T02:57:41;9.98;;;6.20;;
77423;SDS011;66494;47.172;14.678;2023-04-24T02:58:42;10.27;;;5.78;;
77423;SDS011;66494;47.172;14.678;2023-04-24T02:59:42;9.25;;;6.47;;
77423;SDS011;66494;47.172;14.678;2023-04-24T03:00:42;11.05;;;6.32;;
77423;SDS011;66494;47.172;14.678;2023-04-24T03:01:43;9.50;;;6.72;;
77423;SDS011;66494;47.172;14.678;2023-04-24T03:02:43;8.18;;;5.90;;
77423;SDS011;66494;47.172;14.678;2023-04-24T03:03:43;11.77;;;6.40;;
77423;SDS011;66494;47.172;14.678;2023-04-24T03:04:44;8.90;;;5.93;;
77423;SDS011;66494;47.172;14.678;2023-04-24T03:05:44;10.77;;;6.18;;
77423;SDS011;66494;47.172;14.678;2023-04-24T03:06:44;8.95;;;5.88;;
77423;SDS011;66494;47.172;14.678;2023-04-24T03:07:44;7.30;;;5.47;;
77423;SDS011;66494;47.172;14.678;2023-04-24T03:08:45;7.72;;;5.95;;
77423;SDS011;66494;47.172;14.678;2023-04-24T03:09:46;11.20;;;5.75;;
77423;SDS011;66494;47.172;14.678;2023-04-24T03:10:46;8.48;;;5.07;;
77423;SDS011;66494;47.172;14.678;2023-04-24T03:11:46;6.35;;;4.40;;
77423;SDS011;66494;47.172;14.678;2023-04-24T03:12:46;6.82;;;4.82;;
77423;SDS011;66494;47.172;14.678;2023-04-24T03:13:47;5.57;;;4.57;;
77423;SDS011;66494;47.172;14.678;2023-04-24T03:14:47;8.00;;;5.43;;
77423;SDS011;66494;47.172;14.678;2023-04-24T03:15:47;8.93;;;5.50;;
77423;SDS011;66494;47.172;14.678;2023-04-24T03:16:47;10.45;;;5.40;;
77423;SDS011;66494;47.172;14.678;2023-04-24T03:17:48;8.05;;;4.90;;
77423;SDS011;66494;47.172;14.678;2023-04-24T03:18:48;7.72;;;4.18;;
77423;SDS011;66494;47.172;14.678;2023-04-24T03:19:48;6.82;;;5.05;;
77423;SDS011;66494;47.172;14.678;2023-04-24T03:20:48;6.50;;;4.32;;
77423;SDS011;66494;47.172;14.678;2023-04-24T03:21:49;7.80;;;5.25;;
77423;SDS011;66494;47.172;14.678;2023-04-24T03:22:49;5.72;;;4.43;;
77423;SDS011;66494;47.172;14.678;2023-04-24T03:23:50;6.07;;;4.32;;
77423;SDS011;66494;47.172;14.678;2023-04-24T03:24:50;5.45;;;4.05;;
77423;SDS011;66494;47.172;14.678;2023-04-24T03:25:50;10.05;;;4.60;;
77423;SDS011;66494;47.172;14.678;2023-04-24T03:26:51;8.38;;;4.60;;
77423;SDS011;66494;47.172;14.678;2023-04-24T03:27:51;7.97;;;5.47;;
77423;SDS011;66494;47.172;14.678;2023-04-24T03:28:51;8.63;;;4.47;;
77423;SDS011;66494;47.172;14.678;2023-04-24T03:29:52;8.43;;;5.10;;
77423;SDS011;66494;47.172;14.678;2023-04-24T03:30:55;7.30;;;4.55;;
77423;SDS011;66494;47.172;14.678;2023-04-24T03:31:55;6.45;;;4.70;;
77423;SDS011;66494;47.172;14.678;2023-04-24T03:32:56;6.25;;;4.00;;
77423;SDS011;66494;47.172;14.678;2023-04-24T03:33:56;6.53;;;4.40;;
77423;SDS011;66494;47.172;14.678;2023-04-24T03:34:56;7.18;;;4.97;;
77423;SDS011;66494;47.172;14.678;2023-04-24T03:35:56;4.70;;;3.28;;
77423;SDS011;66494;47.172;14.678;2023-04-24T03:36:56;6.55;;;4.88;;
77423;SDS011;66494;47.172;14.678;2023-04-24T03:37:57;8.85;;;4.88;;
77423;SDS011;66494;47.172;14.678;2023-04-24T03:38:57;8.35;;;4.70;;
77423;SDS011;66494;47.172;14.678;2023-04-24T03:39:57;10.98;;;4.88;;
77423;SDS011;66494;47.172;14.678;2023-04-24T03:40:57;10.75;;;5.55;;
77423;SDS011;66494;47.172;14.678;2023-04-24T03:41:57;6.97;;;5.00;;
77423;SDS011;66494;47.172;14.678;2023-04-24T03:42:58;8.93;;;4.75;;
77423;SDS011;66494;47.172;14.678;2023-04-24T03:43:58;8.20;;;5.82;;
77423;SDS011;66494;47.172;14.678;2023-04-24T03:44:58;9.18;;;5.32;;
77423;SDS011;66494;47.172;14.678;2023-04-24T03:45:58;11.93;;;5.10;;
77423;SDS011;66494;47.172;14.678;2023-04-24T03:46:59;9.15;;;5.90;;
77423;SDS011;66494;47.172;14.678;2023-04-24T03:47:59;6.65;;;4.72;;
77423;SDS011;66494;47.172;14.678;2023-04-24T03:48:59;6.18;;;4.95;;
77423;SDS011;66494;47.172;14.678;2023-04-24T03:50:00;7.97;;;5.60;;
77423;SDS011;66494;47.172;14.678;2023-04-24T03:51:00;8.50;;;5.32;;
77423;SDS011;66494;47.172;14.678;2023-04-24T03:52:00;8.07;;;5.55;;
77423;SDS011;66494;47.172;14.678;2023-04-24T03:53:00;6.97;;;4.93;;
77423;SDS011;66494;47.172;14.678;2023-04-24T03:54:01;8.68;;;5.47;;
77423;SDS011;66494;47.172;14.678;2023-04-24T03:55:01;8.05;;;5.32;;
77423;SDS011;66494;47.172;14.678;2023-04-24T03:56:01;9.55;;;5.47;;
77423;SDS011;66494;47.172;14.678;2023-04-24T03:57:01;8.38;;;4.95;;
77423;SDS011;66494;47.172;14.678;2023-04-24T03:58:03;8.93;;;5.50;;
77423;SDS011;66494;47.172;14.678;2023-04-24T03:59:03;7.40;;;5.75;;
77423;SDS011;66494;47.172;14.678;2023-04-24T04:00:03;7.82;;;4.93;;
77423;SDS011;66494;47.172;14.678;2023-04-24T04:01:04;7.80;;;4.85;;
77423;SDS011;66494;47.172;14.678;2023-04-24T04:02:05;8.05;;;5.72;;
77423;SDS011;66494;47.172;14.678;2023-04-24T04:03:06;6.03;;;5.25;;
77423;SDS011;66494;47.172;14.678;2023-04-24T04:04:06;8.27;;;5.80;;
77423;SDS011;66494;47.172;14.678;2023-04-24T04:05:06;7.38;;;5.35;;
77423;SDS011;66494;47.172;14.678;2023-04-24T04:06:08;7.82;;;5.18;;
77423;SDS011;66494;47.172;14.678;2023-04-24T04:07:08;6.18;;;5.22;;
77423;SDS011;66494;47.172;14.678;2023-04-24T04:08:08;7.80;;;5.40;;
77423;SDS011;66494;47.172;14.678;2023-04-24T04:09:08;5.75;;;4.82;;
77423;SDS011;66494;47.172;14.678;2023-04-24T04:10:09;6.82;;;4.88;;
77423;SDS011;66494;47.172;14.678;2023-04-24T04:11:09;7.90;;;5.78;;
77423;SDS011;66494;47.172;14.678;2023-04-24T04:12:09;9.10;;;5.82;;
77423;SDS011;66494;47.172;14.678;2023-04-24T04:13:10;8.60;;;6.25;;
77423;SDS011;66494;47.172;14.678;2023-04-24T04:14:10;7.85;;;5.72;;
77423;SDS011;66494;47.172;14.678;2023-04-24T04:15:10;7.95;;;5.75;;
77423;SDS011;66494;47.172;14.678;2023-04-24T04:16:10;8.63;;;4.95;;
77423;SDS011;66494;47.172;14.678;2023-04-24T04:17:11;8.52;;;6.38;;
77423;SDS011;66494;47.172;14.678;2023-04-24T04:18:11;8.70;;;6.32;;
77423;SDS011;66494;47.172;14.678;2023-04-24T04:19:11;8.93;;;6.13;;
77423;SDS011;66494;47.172;14.678;2023-04-24T04:20:11;8.90;;;6.15;;
77423;SDS011;66494;47.172;14.678;2023-04-24T04:21:12;8.98;;;6.55;;
77423;SDS011;66494;47.172;14.678;2023-04-24T04:22:12;8.85;;;6.15;;
77423;SDS011;66494;47.172;14.678;2023-04-24T04:23:12;9.88;;;6.82;;
77423;SDS011;66494;47.172;14.678;2023-04-24T04:24:13;10.00;;;7.68;;
77423;SDS011;66494;47.172;14.678;2023-04-24T04:25:13;10.68;;;8.00;;
77423;SDS011;66494;47.172;14.678;2023-04-24T04:26:13;10.73;;;7.32;;
77423;SDS011;66494;47.172;14.678;2023-04-24T04:27:14;10.40;;;7.22;;
77423;SDS011;66494;47.172;14.678;2023-04-24T04:28:14;10.82;;;7.75;;
77423;SDS011;66494;47.172;14.678;2023-04-24T04:29:15;13.00;;;8.52;;
77423;SDS011;66494;47.172;14.678;2023-04-24T04:30:15;12.57;;;8.23;;
77423;SDS011;66494;47.172;14.678;2023-04-24T04:31:15;11.02;;;8.43;;
77423;SDS011;66494;47.172;14.678;2023-04-24T04:32:16;11.95;;;7.88;;
77423;SDS011;66494;47.172;14.678;2023-04-24T04:33:16;12.80;;;8.50;;
77423;SDS011;66494;47.172;14.678;2023-04-24T04:34:17;14.68;;;8.48;;
77423;SDS011;66494;47.172;14.678;2023-04-24T04:35:17;12.57;;;6.82;;
77423;SDS011;66494;47.172;14.678;2023-04-24T04:36:17;10.52;;;7.28;;
77423;SDS011;66494;47.172;14.678;2023-04-24T04:37:17;10.50;;;6.57;;
77423;SDS011;66494;47.172;14.678;2023-04-24T04:38:18;11.30;;;8.07;;
77423;SDS011;66494;47.172;14.678;2023-04-24T04:39:19;12.45;;;7.90;;
77423;SDS011;66494;47.172;14.678;2023-04-24T04:40:19;11.52;;;7.40;;
77423;SDS011;66494;47.172;14.678;2023-04-24T04:41:20;10.57;;;7.20;;
77423;SDS011;66494;47.172;14.678;2023-04-24T04:42:20;9.63;;;6.50;;
77423;SDS011;66494;47.172;14.678;2023-04-24T04:43:20;11.55;;;8.38;;
77423;SDS011;66494;47.172;14.678;2023-04-24T04:44:20;9.48;;;7.75;;
77423;SDS011;66494;47.172;14.678;2023-04-24T04:45:20;11.38;;;7.75;;
77423;SDS011;66494;47.172;14.678;2023-04-24T04:46:21;9.73;;;7.25;;
77423;SDS011;66494;47.172;14.678;2023-04-24T04:47:21;10.00;;;7.07;;
77423;SDS011;66494;47.172;14.678;2023-04-24T04:48:24;11.07;;;7.45;;
77423;SDS011;66494;47.172;14.678;2023-04-24T04:49:24;11.85;;;7.13;;
77423;SDS011;66494;47.172;14.678;2023-04-24T04:50:24;11.80;;;7.35;;
77423;SDS011;66494;47.172;14.678;2023-04-24T04:51:25;11.38;;;7.95;;
77423;SDS011;66494;47.172;14.678;2023-04-24T04:52:25;10.38;;;7.85;;
77423;SDS011;66494;47.172;14.678;2023-04-24T04:53:26;11.70;;;7.82;;
77423;SDS011;66494;47.172;14.678;2023-04-24T04:54:26;11.90;;;7.35;;
77423;SDS011;66494;47.172;14.678;2023-04-24T04:55:27;15.80;;;7.40;;
77423;SDS011;66494;47.172;14.678;2023-04-24T04:56:27;11.68;;;8.15;;
77423;SDS011;66494;47.172;14.678;2023-04-24T04:57:27;12.80;;;8.25;;
77423;SDS011;66494;47.172;14.678;2023-04-24T04:58:27;10.32;;;6.90;;
77423;SDS011;66494;47.172;14.678;2023-04-24T04:59:28;11.60;;;7.70;;
77423;SDS011;66494;47.172;14.678;2023-04-24T05:00:28;17.45;;;8.93;;
77423;SDS011;66494;47.172;14.678;2023-04-24T05:01:29;11.32;;;7.57;;
77423;SDS011;66494;47.172;14.678;2023-04-24T05:02:29;12.30;;;7.68;;
77423;SDS011;66494;47.172;14.678;2023-04-24T05:03:29;9.48;;;6.80;;
77423;SDS011;66494;47.172;14.678;2023-04-24T05:04:30;13.25;;;9.25;;
77423;SDS011;66494;47.172;14.678;2023-04-24T05:05:30;12.40;;;7.40;;
77423;SDS011;66494;47.172;14.678;2023-04-24T05:06:30;8.90;;;7.13;;
77423;SDS011;66494;47.172;14.678;2023-04-24T05:07:30;10.18;;;6.95;;
77423;SDS011;66494;47.172;14.678;2023-04-24T05:08:31;10.15;;;6.68;;
77423;SDS011;66494;47.172;14.678;2023-04-24T05:09:31;8.65;;;6.82;;
77423;SDS011;66494;47.172;14.678;2023-04-24T05:10:31;12.13;;;7.63;;
77423;SDS011;66494;47.172;14.678;2023-04-24T05:11:32;11.43;;;7.85;;
77423;SDS011;66494;47.172;14.678;2023-04-24T05:12:32;13.18;;;8.13;;
77423;SDS011;66494;47.172;14.678;2023-04-24T05:13:32;10.95;;;7.45;;
77423;SDS011;66494;47.172;14.678;2023-04-24T05:14:32;12.68;;;6.88;;
77423;SDS011;66494;47.172;14.678;2023-04-24T05:15:33;10.95;;;7.15;;
77423;SDS011;66494;47.172;14.678;2023-04-24T05:16:33;13.02;;;7.90;;
77423;SDS011;66494;47.172;14.678;2023-04-24T05:17:33;11.00;;;7.93;;
77423;SDS011;66494;47.172;14.678;2023-04-24T05:18:33;10.38;;;8.13;;
77423;SDS011;66494;47.172;14.678;2023-04-24T05:19:34;11.32;;;8.35;;
77423;SDS011;66494;47.172;14.678;2023-04-24T05:20:35;10.93;;;8.30;;
77423;SDS011;66494;47.172;14.678;2023-04-24T05:21:36;13.25;;;7.13;;
77423;SDS011;66494;47.172;14.678;2023-04-24T05:22:36;9.50;;;6.63;;
77423;SDS011;66494;47.172;14.678;2023-04-24T05:23:36;10.93;;;7.20;;
77423;SDS011;66494;47.172;14.678;2023-04-24T05:24:37;10.95;;;7.50;;
77423;SDS011;66494;47.172;14.678;2023-04-24T05:25:37;10.38;;;7.28;;
77423;SDS011;66494;47.172;14.678;2023-04-24T05:26:39;10.23;;;7.18;;
77423;SDS011;66494;47.172;14.678;2023-04-24T05:27:39;11.90;;;8.57;;
77423;SDS011;66494;47.172;14.678;2023-04-24T05:28:40;9.30;;;7.32;;
77423;SDS011;66494;47.172;14.678;2023-04-24T05:29:40;11.00;;;7.43;;
77423;SDS011;66494;47.172;14.678;2023-04-24T05:30:41;14.80;;;7.25;;
77423;SDS011;66494;47.172;14.678;2023-04-24T05:31:41;9.20;;;7.38;;
77423;SDS011;66494;47.172;14.678;2023-04-24T05:32:41;11.98;;;6.95;;
77423;SDS011;66494;47.172;14.678;2023-04-24T05:33:41;14.00;;;7.88;;
77423;SDS011;66494;47.172;14.678;2023-04-24T05:34:42;10.30;;;7.10;;
77423;SDS011;66494;47.172;14.678;2023-04-24T05:35:42;10.98;;;7.20;;
77423;SDS011;66494;47.172;14.678;2023-04-24T05:36:45;10.23;;;6.47;;
77423;SDS011;66494;47.172;14.678;2023-04-24T05:37:46;10.23;;;7.55;;
77423;SDS011;66494;47.172;14.678;2023-04-24T05:38:46;7.55;;;6.10;;
77423;SDS011;66494;47.172;14.678;2023-04-24T05:39:46;8.60;;;6.13;;
77423;SDS011;66494;47.172;14.678;2023-04-24T05:40:46;8.35;;;5.75;;
77423;SDS011;66494;47.172;14.678;2023-04-24T05:41:47;9.27;;;6.32;;
77423;SDS011;66494;47.172;14.678;2023-04-24T05:42:47;7.80;;;6.20;;
77423;SDS011;66494;47.172;14.678;2023-04-24T05:43:47;8.63;;;6.22;;
77423;SDS011;66494;47.172;14.678;2023-04-24T05:44:47;9.88;;;6.93;;
77423;SDS011;66494;47.172;14.678;2023-04-24T05:45:48;10.80;;;6.65;;
77423;SDS011;66494;47.172;14.678;2023-04-24T05:46:48;9.98;;;7.13;;
77423;SDS011;66494;47.172;14.678;2023-04-24T05:47:48;11.10;;;7.38;;
77423;SDS011;66494;47.172;14.678;2023-04-24T05:48:50;9.85;;;6.40;;
77423;SDS011;66494;47.172;14.678;2023-04-24T05:49:50;13.10;;;7.50;;
77423;SDS011;66494;47.172;14.678;2023-04-24T05:50:51;12.48;;;8.40;;
77423;SDS011;66494;47.172;14.678;2023-04-24T05:51:52;12.25;;;7.40;;
77423;SDS011;66494;47.172;14.678;2023-04-24T05:52:52;12.02;;;8.40;;
77423;SDS011;66494;47.172;14.678;2023-04-24T05:53:53;7.95;;;6.32;;
77423;SDS011;66494;47.172;14.678;2023-04-24T05:54:53;11.55;;;6.85;;
77423;SDS011;66494;47.172;14.678;2023-04-24T05:55:54;10.07;;;6.97;;
77423;SDS011;66494;47.172;14.678;2023-04-24T05:56:54;10.65;;;6.13;;
77423;SDS011;66494;47.172;14.678;2023-04-24T05:58:55;9.67;;;6.37;;
77423;SDS011;66494;47.172;14.678;2023-04-24T05:59:55;12.70;;;8.25;;